Time;durP1;ratioP1;P1;durP2;ratioP2;P2;SDS_P1;SDS_P2;PMS_P1;PMS_P2;Temp;Humidity;BMP_temperature;BMP_pressure;BME280_temperature;BME280_humidity;BME280_pressure;Samples;Min_cycle;Max_cycle;Signal;HPM_P1;HPM_P2
2021/11/29 00:04:44;;;;;;;;;;;;;;;8.10;100.00;92754.38;10403176;28;19967;-77
2021/11/29 00:09:44;;;;;;;;;;;;;;;7.99;100.00;92770.66;10388000;28;20280;-75
2021/11/29 00:14:45;;;;;;;;;;;;;;;7.92;100.00;92769.53;10387455;28;19921;-82
2021/11/29 00:19:45;;;;;;;;;;;;;;;7.81;100.00;92785.78;10386847;28;20004;-75
2021/11/29 00:24:45;;;;;;;;;;;;;;;7.83;100.00;92748.06;10385988;28;19921;-76
2021/11/29 00:29:46;;;;;;;;;;;;;;;7.89;100.00;92762.13;10387127;28;20486;-74
2021/11/29 00:34:46;;;;;;;;;;;;;;;8.08;100.00;92754.69;10403246;28;19970;-77
2021/11/29 00:39:46;;;;;;;;;;;;;;;8.13;100.00;92740.38;10385555;28;19917;-75
2021/11/29 00:44:46;;;;;;;;;;;;;;;8.07;100.00;92760.34;10403743;28;19917;-76
2021/11/29 00:49:47;;;;;;;;;;;;;;;8.06;100.00;92742.69;10402449;28;19963;-76
2021/11/29 00:54:47;;;;;;;;;;;;;;;8.27;100.00;92716.97;10403483;28;19917;-73
2021/11/29 00:59:48;;;;;;;;;;;;;;;8.07;100.00;92738.94;10401613;28;19913;-74
2021/11/29 01:04:49;;;;;;;;;;;;;;;8.23;100.00;92742.78;10385198;28;19927;-74
2021/11/29 01:09:49;;;;;;;;;;;;;;;8.21;100.00;92771.75;10385585;28;19927;-75
2021/11/29 01:14:50;;;;;;;;;;;;;;;7.98;100.00;92777.13;10400478;28;19920;-75
2021/11/29 01:19:50;;;;;;;;;;;;;;;8.21;100.00;92764.50;10384510;28;19921;-79
2021/11/29 01:24:50;;;;;;;;;;;;;;;8.30;100.00;92743.16;10384480;28;19921;-76
2021/11/29 01:29:51;;;;;;;;;;;;;;;8.26;100.00;92718.09;10397349;28;20383;-78
2021/11/29 01:34:52;;;;;;;;;;;;;;;8.35;100.00;92721.59;10415513;28;19962;-74
2021/11/29 01:39:52;;;;;;;;;;;;;;;8.39;100.00;92698.47;10398381;28;19999;-77
2021/11/29 01:44:52;;;;;;;;;;;;;;;8.09;100.00;92699.28;10415507;28;19921;-73
2021/11/29 01:49:53;;;;;;;;;;;;;;;7.96;100.00;92698.28;10414354;28;20361;-76
2021/11/29 01:54:53;;;;;;;;;;;;;;;7.86;100.00;92707.34;10397747;28;19920;-75
2021/11/29 01:59:53;;;;;;;;;;;;;;;7.96;100.00;92700.94;10416608;28;19917;-73
2021/11/29 02:04:58;;;;;;;;;;;;;;;8.09;100.00;92689.34;10414597;28;19921;-74
2021/11/29 02:09:58;;;;;;;;;;;;;;;8.23;100.00;92664.41;10416674;28;19921;-75
2021/11/29 02:14:59;;;;;;;;;;;;;;;7.99;100.00;92668.22;10401134;28;19914;-73
2021/11/29 02:20:00;;;;;;;;;;;;;;;8.05;100.00;92658.97;10400682;28;19913;-74
2021/11/29 02:25:00;;;;;;;;;;;;;;;8.03;100.00;92680.69;10402306;28;19917;-74
2021/11/29 02:30:02;;;;;;;;;;;;;;;8.02;100.00;92659.59;10397161;28;19917;-76
2021/11/29 02:35:02;;;;;;;;;;;;;;;7.83;100.00;92671.31;10397691;28;19983;-75
2021/11/29 02:40:05;;;;;;;;;;;;;;;7.97;100.00;92657.06;10409501;28;19920;-79
2021/11/29 02:45:05;;;;;;;;;;;;;;;7.89;100.00;92649.78;10407248;28;19917;-75
2021/11/29 02:50:06;;;;;;;;;;;;;;;7.98;100.00;92626.53;10407656;28;19924;-75
2021/11/29 02:55:08;;;;;;;;;;;;;;;8.07;100.00;92611.31;10406801;28;20334;-74
2021/11/29 03:00:10;;;;;;;;;;;;;;;8.15;100.00;92629.28;10406965;28;19967;-72
2021/11/29 03:05:10;;;;;;;;;;;;;;;8.28;100.00;92637.50;10390576;28;19921;-76
2021/11/29 03:10:10;;;;;;;;;;;;;;;8.28;100.00;92627.59;10408689;28;19921;-75
2021/11/29 03:15:11;;;;;;;;;;;;;;;8.15;100.00;92636.50;10408713;28;20005;-74
2021/11/29 03:20:12;;;;;;;;;;;;;;;8.24;100.00;92623.94;10406310;28;20000;-77
2021/11/29 03:25:12;;;;;;;;;;;;;;;7.91;100.00;92672.47;10406767;28;19922;-75
2021/11/29 03:30:12;;;;;;;;;;;;;;;7.69;100.00;92679.41;10404970;28;19917;-73
2021/11/29 03:35:13;;;;;;;;;;;;;;;7.91;100.00;92671.66;10388453;28;19913;-75
2021/11/29 03:40:13;;;;;;;;;;;;;;;7.99;100.00;92663.66;10405432;28;20407;-76
2021/11/29 03:45:14;;;;;;;;;;;;;;;8.13;100.00;92660.09;10404772;28;19976;-76
2021/11/29 03:50:14;;;;;;;;;;;;;;;8.20;100.00;92605.06;10403137;28;19943;-78
2021/11/29 03:55:15;;;;;;;;;;;;;;;8.02;100.00;92622.13;10405581;28;19913;-74
2021/11/29 04:00:15;;;;;;;;;;;;;;;7.98;100.00;92653.28;10387834;28;19928;-77
2021/11/29 04:05:16;;;;;;;;;;;;;;;7.97;100.00;92663.19;10385975;28;20374;-77
2021/11/29 04:10:16;;;;;;;;;;;;;;;8.06;100.00;92636.47;10387936;28;19917;-74
2021/11/29 04:15:16;;;;;;;;;;;;;;;8.12;100.00;92618.41;10405161;28;19913;-75
2021/11/29 04:20:17;;;;;;;;;;;;;;;8.10;100.00;92608.00;10386417;28;20406;-77
2021/11/29 04:25:20;;;;;;;;;;;;;;;8.10;100.00;92586.59;10387927;28;20383;-75
2021/11/29 04:30:23;;;;;;;;;;;;;;;8.12;100.00;92597.78;10406267;28;19957;-75
2021/11/29 04:35:25;;;;;;;;;;;;;;;7.93;100.00;92603.38;10387997;28;19981;-74
2021/11/29 04:40:26;;;;;;;;;;;;;;;7.81;100.00;92632.59;10392476;28;19949;-73
2021/11/29 04:45:26;;;;;;;;;;;;;;;7.80;100.00;92623.78;10406113;28;20020;-74
2021/11/29 04:50:26;;;;;;;;;;;;;;;7.83;100.00;92607.13;10386571;28;19920;-74
2021/11/29 04:55:27;;;;;;;;;;;;;;;7.81;100.00;92603.94;10385968;28;19920;-75
2021/11/29 05:00:27;;;;;;;;;;;;;;;7.93;100.00;92611.41;10401941;28;20721;-74
2021/11/29 05:05:27;;;;;;;;;;;;;;;7.98;100.00;92608.59;10401677;28;19925;-78
2021/11/29 05:10:28;;;;;;;;;;;;;;;8.07;100.00;92630.03;10402034;28;20474;-77
2021/11/29 05:15:32;;;;;;;;;;;;;;;8.07;100.00;92624.69;10401482;28;19913;-81
2021/11/29 05:20:33;;;;;;;;;;;;;;;8.14;100.00;92659.81;10400561;28;19971;-76
2021/11/29 05:25:33;;;;;;;;;;;;;;;8.22;100.00;92634.19;10401928;28;19917;-80
2021/11/29 05:30:34;;;;;;;;;;;;;;;8.43;100.00;92625.56;10435347;23;19992;-86
2021/11/29 05:35:34;;;;;;;;;;;;;;;8.34;100.00;92628.22;10423041;28;20073;-89
2021/11/29 05:40:34;;;;;;;;;;;;;;;8.42;100.00;92638.16;10419251;28;20598;-87
2021/11/29 05:45:35;;;;;;;;;;;;;;;8.46;100.00;92643.72;10416238;28;20394;-87
2021/11/29 05:50:37;;;;;;;;;;;;;;;8.59;100.00;92632.09;10435816;28;20142;-88
2021/11/29 05:55:37;;;;;;;;;;;;;;;8.63;100.00;92626.91;10417232;28;19913;-88
2021/11/29 06:00:39;;;;;;;;;;;;;;;8.61;100.00;92629.09;10417275;28;20295;-87
2021/11/29 06:05:39;;;;;;;;;;;;;;;8.64;100.00;92663.31;10415518;28;19917;-87
2021/11/29 06:10:40;;;;;;;;;;;;;;;8.57;100.00;92650.38;10415661;28;19913;-87
2021/11/29 06:15:40;;;;;;;;;;;;;;;8.63;100.00;92649.09;10438769;28;19912;-88
2021/11/29 06:20:41;;;;;;;;;;;;;;;8.72;100.00;92678.56;10439572;28;19924;-87
2021/11/29 06:25:41;;;;;;;;;;;;;;;8.77;100.00;92674.97;10440609;28;20020;-87
2021/11/29 06:30:44;;;;;;;;;;;;;;;8.76;100.00;92689.47;10439083;28;19931;-87
2021/11/29 06:35:44;;;;;;;;;;;;;;;8.80;100.00;92701.13;10438069;28;19919;-89
2021/11/29 06:40:49;;;;;;;;;;;;;;;8.85;100.00;92687.59;10438805;28;20307;-87
2021/11/29 06:45:50;;;;;;;;;;;;;;;8.80;100.00;92706.50;10440829;28;19921;-87
2021/11/29 06:50:53;;;;;;;;;;;;;;;8.75;100.00;92714.66;10440883;28;19913;-86
2021/11/29 06:55:56;;;;;;;;;;;;;;;8.67;100.00;92718.91;10440372;28;19935;-87
2021/11/29 07:00:57;;;;;;;;;;;;;;;8.76;100.00;92741.13;10444916;28;19920;-86
2021/11/29 07:05:57;;;;;;;;;;;;;;;8.91;100.00;92741.81;10438299;28;19916;-87
2021/11/29 07:10:58;;;;;;;;;;;;;;;8.89;100.00;92740.22;10440192;28;19917;-87
2021/11/29 07:15:58;;;;;;;;;;;;;;;9.05;100.00;92731.75;10437887;28;19923;-88
2021/11/29 07:20:59;;;;;;;;;;;;;;;9.15;100.00;92747.53;10438194;28;19917;-88
2021/11/29 07:25:59;;;;;;;;;;;;;;;9.07;100.00;92759.81;10437476;28;19917;-87
2021/11/29 07:30:59;;;;;;;;;;;;;;;9.11;100.00;92732.38;10439226;28;19929;-87
2021/11/29 07:36:00;;;;;;;;;;;;;;;9.30;100.00;92719.47;10438403;28;19913;-87
2021/11/29 07:41:00;;;;;;;;;;;;;;;9.36;100.00;92738.88;10439146;28;19919;-87
2021/11/29 07:46:02;;;;;;;;;;;;;;;9.14;100.00;92755.88;10438735;28;20078;-87
2021/11/29 07:51:02;;;;;;;;;;;;;;;9.20;100.00;92749.28;10438190;28;20438;-86
2021/11/29 07:56:03;;;;;;;;;;;;;;;9.20;100.00;92770.72;10437384;28;19913;-87
2021/11/29 08:01:03;;;;;;;;;;;;;;;9.62;100.00;92770.28;10437351;28;19927;-87
2021/11/29 08:06:04;;;;;;;;;;;;;;;9.70;100.00;92769.50;10437533;28;19917;-88
2021/11/29 08:11:04;;;;;;;;;;;;;;;9.84;100.00;92758.63;10437155;28;19917;-86
2021/11/29 08:16:05;;;;;;;;;;;;;;;9.80;100.00;92779.13;10436180;28;19912;-86
2021/11/29 08:21:05;;;;;;;;;;;;;;;9.84;100.00;92780.09;10436624;28;19913;-88
2021/11/29 08:26:05;;;;;;;;;;;;;;;9.59;100.00;92777.06;10435935;28;19923;-88
2021/11/29 08:31:06;;;;;;;;;;;;;;;9.16;100.00;92802.72;10434414;28;19924;-86
2021/11/29 08:36:06;;;;;;;;;;;;;;;8.29;100.00;92886.09;10436165;28;19917;-87
2021/11/29 08:41:06;;;;;;;;;;;;;;;7.44;100.00;92912.56;10435720;28;20008;-88
2021/11/29 08:46:07;;;;;;;;;;;;;;;6.83;100.00;92915.28;10435693;28;20000;-87
2021/11/29 08:51:07;;;;;;;;;;;;;;;6.13;100.00;92939.09;10434952;28;19917;-87
2021/11/29 08:56:08;;;;;;;;;;;;;;;5.69;100.00;92950.84;10434006;28;19916;-87
2021/11/29 09:01:08;;;;;;;;;;;;;;;5.79;100.00;92958.72;10435370;28;20481;-87
2021/11/29 09:06:08;;;;;;;;;;;;;;;5.89;100.00;92949.81;10434083;28;19927;-87
2021/11/29 09:11:09;;;;;;;;;;;;;;;5.75;100.00;92984.38;10434400;28;19970;-87
2021/11/29 09:16:11;;;;;;;;;;;;;;;5.69;100.00;92998.03;10433409;28;19913;-87
2021/11/29 09:21:12;;;;;;;;;;;;;;;5.78;100.00;93036.31;10434612;28;20379;-88
2021/11/29 09:26:12;;;;;;;;;;;;;;;4.97;100.00;93056.31;10434285;28;19917;-87
2021/11/29 09:31:13;;;;;;;;;;;;;;;5.28;100.00;93042.69;10433803;28;20423;-85
2021/11/29 09:36:13;;;;;;;;;;;;;;;5.47;100.00;93021.47;10432742;28;20359;-85
2021/11/29 09:41:13;;;;;;;;;;;;;;;5.54;100.00;93031.78;10431305;28;19920;-85
2021/11/29 09:46:14;;;;;;;;;;;;;;;5.71;100.00;93019.88;10431866;28;19928;-85
2021/11/29 09:51:14;;;;;;;;;;;;;;;5.61;100.00;93015.44;10439979;28;20376;-85
2021/11/29 09:56:15;;;;;;;;;;;;;;;5.68;100.00;93013.25;10439867;28;19917;-84
2021/11/29 10:01:16;;;;;;;;;;;;;;;5.65;100.00;93019.94;10439594;28;20303;-84
2021/11/29 10:06:16;;;;;;;;;;;;;;;5.73;100.00;93031.81;10439549;28;20375;-86
2021/11/29 10:11:17;;;;;;;;;;;;;;;5.65;100.00;93027.13;10440656;28;19917;-84
2021/11/29 10:16:28;;;;;;;;;;;;;;;5.62;100.00;93015.19;10440931;28;20066;-85
2021/11/29 10:21:29;;;;;;;;;;;;;;;5.62;100.00;93017.84;10438829;28;20341;-85
2021/11/29 10:26:35;;;;;;;;;;;;;;;5.48;100.00;92996.41;10438951;28;20323;-84
2021/11/29 10:31:43;;;;;;;;;;;;;;;5.40;100.00;93015.69;10438347;28;20484;-84
2021/11/29 10:36:50;;;;;;;;;;;;;;;5.38;100.00;92999.19;10438418;28;19913;-84
2021/11/29 10:41:55;;;;;;;;;;;;;;;5.45;100.00;93020.94;10441127;28;19955;-84
2021/11/29 10:46:56;;;;;;;;;;;;;;;5.06;100.00;93005.13;10437899;28;19916;-85
2021/11/29 10:51:58;;;;;;;;;;;;;;;5.24;100.00;92999.06;10436875;28;19917;-84
2021/11/29 10:57:00;;;;;;;;;;;;;;;5.23;100.00;92996.69;10437610;28;20288;-85
2021/11/29 11:02:01;;;;;;;;;;;;;;;5.19;100.00;93007.13;10437059;28;20077;-85
2021/11/29 11:07:03;;;;;;;;;;;;;;;5.18;100.00;93010.03;10437040;28;20353;-85
2021/11/29 11:12:05;;;;;;;;;;;;;;;4.83;100.00;93020.75;10436885;28;20293;-84
2021/11/29 11:17:09;;;;;;;;;;;;;;;5.19;100.00;93009.78;10436432;28;19917;-84
2021/11/29 11:22:09;;;;;;;;;;;;;;;5.38;100.00;93007.16;10437360;28;19916;-85
2021/11/29 11:27:10;;;;;;;;;;;;;;;5.67;100.00;92998.31;10437699;28;19920;-85
2021/11/29 11:32:12;;;;;;;;;;;;;;;5.80;100.00;93000.31;10435625;28;19933;-85
2021/11/29 11:37:14;;;;;;;;;;;;;;;5.76;100.00;92977.97;10435607;28;19991;-85
2021/11/29 11:42:15;;;;;;;;;;;;;;;5.88;100.00;92985.53;10435670;28;19913;-84
2021/11/29 11:47:15;;;;;;;;;;;;;;;5.43;100.00;93001.00;10435049;28;19997;-85
2021/11/29 11:52:18;;;;;;;;;;;;;;;5.22;100.00;93016.41;10435317;28;19917;-85
2021/11/29 11:57:21;;;;;;;;;;;;;;;5.02;100.00;93028.03;10435066;28;20040;-87
2021/11/29 12:02:32;;;;;;;;;;;;;;;4.68;100.00;93039.53;10435080;28;19913;-85
2021/11/29 12:07:33;;;;;;;;;;;;;;;4.77;100.00;93043.16;10434808;28;20363;-85
2021/11/29 12:12:53;;;;;;;;;;;;;;;4.41;100.00;93052.19;10433050;28;19913;-85
2021/11/29 12:17:54;;;;;;;;;;;;;;;4.61;100.00;93074.41;10433895;28;19912;-85
2021/11/29 12:22:54;;;;;;;;;;;;;;;4.33;100.00;93090.00;10434719;28;19926;-86
2021/11/29 12:28:04;;;;;;;;;;;;;;;4.21;100.00;93063.75;10433318;28;19982;-84
2021/11/29 12:33:05;;;;;;;;;;;;;;;4.41;100.00;93051.38;10433258;28;19924;-84
2021/11/29 12:38:10;;;;;;;;;;;;;;;4.64;100.00;93028.63;10434259;28;20272;-85
2021/11/29 12:43:10;;;;;;;;;;;;;;;4.71;100.00;93023.00;10435390;28;20039;-85
2021/11/29 12:48:13;;;;;;;;;;;;;;;4.94;100.00;93051.53;10433302;28;19913;-85
2021/11/29 12:53:13;;;;;;;;;;;;;;;5.00;100.00;93038.97;10433780;28;19968;-85
2021/11/29 12:58:19;;;;;;;;;;;;;;;5.18;100.00;93016.19;10434625;28;20015;-85
2021/11/29 13:03:29;;;;;;;;;;;;;;;5.31;100.00;93031.47;10433530;28;19923;-85
2021/11/29 13:08:29;;;;;;;;;;;;;;;5.16;100.00;93036.97;10432232;28;19913;-85
2021/11/29 13:13:47;;;;;;;;;;;;;;;5.28;100.00;93018.72;10432371;28;19947;-85
2021/11/29 13:18:55;;;;;;;;;;;;;;;5.58;100.00;93014.16;10432098;28;19913;-85
2021/11/29 13:23:58;;;;;;;;;;;;;;;5.78;100.00;93020.31;10431576;28;19920;-85
2021/11/29 13:29:01;;;;;;;;;;;;;;;5.75;100.00;93018.22;10432572;28;19952;-85
2021/11/29 13:34:02;;;;;;;;;;;;;;;5.56;100.00;93023.50;10431941;28;20410;-85
2021/11/29 13:39:20;;;;;;;;;;;;;;;5.34;100.00;93016.81;10433785;28;20062;-85
2021/11/29 13:44:22;;;;;;;;;;;;;;;5.10;100.00;93014.13;10432046;28;19960;-86
2021/11/29 13:49:28;;;;;;;;;;;;;;;5.05;100.00;93028.28;10431664;28;20015;-86
2021/11/29 13:54:29;;;;;;;;;;;;;;;5.19;100.00;93039.09;10432999;28;19920;-86
2021/11/29 13:59:29;;;;;;;;;;;;;;;5.20;100.00;93035.31;10431435;28;19924;-86
2021/11/29 14:04:29;;;;;;;;;;;;;;;5.25;100.00;93023.84;10431022;28;19999;-86
2021/11/29 14:09:30;;;;;;;;;;;;;;;5.31;100.00;93039.47;10431346;28;19917;-86
2021/11/29 14:14:33;;;;;;;;;;;;;;;5.26;100.00;93023.56;10433242;28;19927;-86
2021/11/29 14:19:34;;;;;;;;;;;;;;;5.09;100.00;93055.13;10432242;28;19913;-85
2021/11/29 14:24:35;;;;;;;;;;;;;;;4.88;100.00;93065.94;10430790;28;19986;-86
2021/11/29 14:29:40;;;;;;;;;;;;;;;4.88;100.00;93071.28;10430600;28;19940;-85
2021/11/29 14:34:56;;;;;;;;;;;;;;;4.81;100.00;93068.13;10432785;28;19912;-86
2021/11/29 14:39:58;;;;;;;;;;;;;;;4.80;100.00;93085.19;10438061;28;19970;-85
2021/11/29 14:44:59;;;;;;;;;;;;;;;4.57;100.00;93100.75;10437964;28;19921;-84
2021/11/29 14:50:07;;;;;;;;;;;;;;;4.50;100.00;93113.59;10437254;28;20401;-84
2021/11/29 14:55:09;;;;;;;;;;;;;;;4.65;100.00;93110.03;10437239;28;19916;-86
2021/11/29 15:00:11;;;;;;;;;;;;;;;4.38;100.00;93124.56;10438483;28;19920;-86
2021/11/29 15:05:14;;;;;;;;;;;;;;;4.19;100.00;93140.34;10437376;28;20384;-85
2021/11/29 15:10:26;;;;;;;;;;;;;;;4.00;100.00;93164.06;10436517;28;19919;-86
2021/11/29 15:15:36;;;;;;;;;;;;;;;3.70;100.00;93165.75;10438489;28;19920;-86
2021/11/29 15:20:44;;;;;;;;;;;;;;;3.44;100.00;93196.06;10439832;28;20057;-86
2021/11/29 15:25:53;;;;;;;;;;;;;;;3.34;100.00;93170.31;10439114;28;19917;-85
2021/11/29 15:30:55;;;;;;;;;;;;;;;3.66;100.00;93153.28;10436358;28;19990;-87
2021/11/29 15:35:56;;;;;;;;;;;;;;;3.68;100.00;93164.41;10435565;28;19924;-86
2021/11/29 15:41:01;;;;;;;;;;;;;;;3.78;100.00;93172.34;10436422;28;20277;-85
2021/11/29 15:46:03;;;;;;;;;;;;;;;3.49;100.00;93180.09;10434356;28;20188;-86
2021/11/29 15:51:06;;;;;;;;;;;;;;;3.59;100.00;93164.94;10435578;28;20315;-86
2021/11/29 15:56:06;;;;;;;;;;;;;;;3.67;100.00;93160.97;10398501;28;19914;-87
2021/11/29 16:01:09;;;;;;;;;;;;;;;3.63;100.00;93167.88;10394548;28;19913;-87
2021/11/29 16:06:11;;;;;;;;;;;;;;;3.31;100.00;93195.53;10377320;28;19933;-86
2021/11/29 16:11:14;;;;;;;;;;;;;;;3.30;100.00;93190.50;10394086;28;20348;-88
2021/11/29 16:16:15;;;;;;;;;;;;;;;3.32;100.00;93197.13;10377285;28;19920;-86
2021/11/29 16:21:16;;;;;;;;;;;;;;;3.33;100.00;93205.88;10392856;28;19917;-85
2021/11/29 16:26:16;;;;;;;;;;;;;;;3.33;100.00;93206.66;10376631;28;20304;-86
2021/11/29 16:31:17;;;;;;;;;;;;;;;3.18;100.00;93204.81;10377030;28;20012;-87
2021/11/29 16:36:18;;;;;;;;;;;;;;;3.20;100.00;93210.66;10376956;28;20331;-85
2021/11/29 16:41:18;;;;;;;;;;;;;;;3.16;100.00;93198.19;10393195;28;19943;-85
2021/11/29 16:46:18;;;;;;;;;;;;;;;3.35;100.00;93185.16;10394179;28;19917;-85
2021/11/29 16:51:21;;;;;;;;;;;;;;;3.40;100.00;93198.44;10398446;28;20016;-86
2021/11/29 16:56:21;;;;;;;;;;;;;;;3.55;100.00;93193.13;10394592;28;19968;-87
2021/11/29 17:01:22;;;;;;;;;;;;;;;3.78;100.00;93201.59;10382377;28;19963;-86
2021/11/29 17:06:22;;;;;;;;;;;;;;;3.77;100.00;93213.28;10393696;28;19975;-85
2021/11/29 17:11:25;;;;;;;;;;;;;;;3.74;100.00;93216.47;10395919;28;19914;-87
2021/11/29 17:16:26;;;;;;;;;;;;;;;3.83;100.00;93201.59;10381351;28;19920;-84
2021/11/29 17:21:26;;;;;;;;;;;;;;;3.65;100.00;93210.13;10404674;28;20285;-88
2021/11/29 17:26:27;;;;;;;;;;;;;;;3.69;100.00;93195.22;10425856;28;20437;-86
2021/11/29 17:31:34;;;;;;;;;;;;;;;3.62;100.00;93208.00;10415920;28;19925;-88
2021/11/29 17:36:38;;;;;;;;;;;;;;;3.70;100.00;93202.16;10416690;28;20307;-89
2021/11/29 17:41:38;;;;;;;;;;;;;;;3.64;100.00;93213.84;10434566;28;19913;-85
2021/11/29 17:46:40;;;;;;;;;;;;;;;3.74;100.00;93232.41;10417754;28;19925;-86
2021/11/29 17:51:43;;;;;;;;;;;;;;;3.96;100.00;93228.66;10415542;28;19921;-87
2021/11/29 17:56:44;;;;;;;;;;;;;;;3.98;100.00;93210.56;10432074;28;19913;-85
2021/11/29 18:01:45;;;;;;;;;;;;;;;3.94;100.00;93216.44;10416508;28;20398;-86
2021/11/29 18:06:55;;;;;;;;;;;;;;;4.06;100.00;93200.22;10414678;28;19917;-85
2021/11/29 18:17:15;;;;;;;;;;;;;;;3.98;100.00;93187.47;10441124;28;19913;-85
2021/11/29 18:22:27;;;;;;;;;;;;;;;3.88;100.00;93182.97;10422974;28;19913;-85
2021/11/29 18:27:31;;;;;;;;;;;;;;;3.80;100.00;93186.19;10427828;28;19917;-86
2021/11/29 18:32:34;;;;;;;;;;;;;;;3.78;100.00;93180.31;10427793;28;20417;-87
2021/11/29 18:37:37;;;;;;;;;;;;;;;3.69;100.00;93158.03;10427170;28;19913;-94
2021/11/29 18:42:49;;;;;;;;;;;;;;;3.69;100.00;93142.88;10431096;28;20007;-86
2021/11/29 18:47:49;;;;;;;;;;;;;;;3.52;100.00;93155.69;10402548;28;20511;-88
2021/11/29 18:52:52;;;;;;;;;;;;;;;3.64;100.00;93155.38;10399312;28;19914;-88
2021/11/29 18:57:53;;;;;;;;;;;;;;;3.62;100.00;93153.00;10399157;28;19971;-86
2021/11/29 19:02:55;;;;;;;;;;;;;;;3.65;100.00;93167.63;10418709;28;20410;-84
2021/11/29 19:07:56;;;;;;;;;;;;;;;3.51;100.00;93181.44;10413676;28;20441;-83
2021/11/29 19:12:57;;;;;;;;;;;;;;;3.63;100.00;93178.50;10398843;28;19963;-84
2021/11/29 19:18:01;;;;;;;;;;;;;;;3.76;100.00;93182.47;10420742;28;19928;-85
2021/11/29 19:23:10;;;;;;;;;;;;;;;3.85;100.00;93193.34;10407008;28;19917;-88
2021/11/29 19:28:15;;;;;;;;;;;;;;;3.81;100.00;93147.09;10403345;28;20325;-86
2021/11/29 19:33:17;;;;;;;;;;;;;;;3.39;100.00;93172.94;10405421;28;19921;-84
2021/11/29 19:38:17;;;;;;;;;;;;;;;3.48;100.00;93150.09;10435975;28;19928;-88
2021/11/29 19:43:18;;;;;;;;;;;;;;;3.28;100.00;93166.84;10420816;28;19936;-88
2021/11/29 19:48:24;;;;;;;;;;;;;;;3.51;100.00;93136.28;10440710;28;19952;-94
2021/11/29 19:59:28;;;;;;;;;;;;;;;3.75;100.00;93163.09;10428752;28;20324;-91
2021/11/29 20:04:29;;;;;;;;;;;;;;;3.90;100.00;93156.13;10451129;28;19913;-93
2021/11/29 20:09:29;;;;;;;;;;;;;;;3.97;100.00;93150.53;10439504;28;19925;-89
2021/11/29 20:14:29;;;;;;;;;;;;;;;3.76;100.00;93187.78;10458780;22;19924;-77
2021/11/29 20:19:31;;;;;;;;;;;;;;;3.81;100.00;93171.03;10459670;28;19948;-76
2021/11/29 20:24:31;;;;;;;;;;;;;;;3.84;100.00;93165.97;10443249;28;19928;-73
2021/11/29 20:29:32;;;;;;;;;;;;;;;3.87;100.00;93170.75;10460249;28;19920;-74
2021/11/29 20:34:33;;;;;;;;;;;;;;;3.86;100.00;93174.47;10442722;28;19913;-75
2021/11/29 20:39:34;;;;;;;;;;;;;;;3.86;100.00;93211.66;10442775;28;20369;-74
2021/11/29 20:44:36;;;;;;;;;;;;;;;3.88;100.00;93220.19;10442656;28;20743;-74
2021/11/29 20:49:37;;;;;;;;;;;;;;;3.93;100.00;93222.03;10441649;28;20358;-75
2021/11/29 20:54:37;;;;;;;;;;;;;;;3.96;100.00;93247.28;10457961;28;19916;-74
2021/11/29 20:59:37;;;;;;;;;;;;;;;3.97;100.00;93257.63;10441627;28;19962;-78
2021/11/29 21:04:38;;;;;;;;;;;;;;;3.97;100.00;93254.19;10440623;28;19983;-78
2021/11/29 21:09:39;;;;;;;;;;;;;;;3.88;100.00;93256.56;10458052;28;19974;-73
2021/11/29 21:14:39;;;;;;;;;;;;;;;3.86;100.00;93253.41;10449222;28;20390;-73
2021/11/29 21:19:39;;;;;;;;;;;;;;;3.58;100.00;93274.13;10483763;28;20321;-75
2021/11/29 21:24:40;;;;;;;;;;;;;;;3.66;100.00;93230.31;10483567;28;19927;-76
2021/11/29 21:29:41;;;;;;;;;;;;;;;3.39;100.00;93234.00;10482358;28;19952;-74
2021/11/29 21:34:42;;;;;;;;;;;;;;;3.28;100.00;93251.81;10483417;28;19920;-76
2021/11/29 21:39:42;;;;;;;;;;;;;;;3.13;100.00;93199.50;10483791;28;19974;-74
2021/11/29 21:44:42;;;;;;;;;;;;;;;3.08;100.00;93228.69;10486805;28;20408;-78
2021/11/29 21:49:43;;;;;;;;;;;;;;;3.23;100.00;93182.78;10490603;28;20306;-74
2021/11/29 21:54:43;;;;;;;;;;;;;;;3.15;100.00;93215.16;10491355;28;19919;-74
2021/11/29 21:59:43;;;;;;;;;;;;;;;3.10;100.00;93213.31;10490027;28;19974;-76
2021/11/29 22:04:46;;;;;;;;;;;;;;;3.12;100.00;93202.44;10489407;28;20510;-82
2021/11/29 22:09:46;;;;;;;;;;;;;;;3.02;100.00;93219.91;10490562;28;19913;-80
2021/11/29 22:14:47;;;;;;;;;;;;;;;3.10;100.00;93202.69;10517383;22;20450;-74
2021/11/29 22:19:47;;;;;;;;;;;;;;;3.27;100.00;93199.00;10532253;28;19966;-75
2021/11/29 22:24:47;;;;;;;;;;;;;;;3.32;100.00;93188.34;10532103;28;20374;-80
2021/11/29 22:29:47;;;;;;;;;;;;;;;3.49;100.00;93207.47;10513654;28;19947;-78
2021/11/29 22:34:48;;;;;;;;;;;;;;;3.30;100.00;93193.94;10514198;28;19912;-75
2021/11/29 22:39:48;;;;;;;;;;;;;;;3.48;100.00;93195.25;10513174;28;19912;-75
2021/11/29 22:44:48;;;;;;;;;;;;;;;3.64;100.00;93192.56;10533083;28;20029;-74
2021/11/29 22:49:49;;;;;;;;;;;;;;;3.58;100.00;93179.28;10515857;28;20496;-75
2021/11/29 22:54:49;;;;;;;;;;;;;;;3.32;100.00;93165.25;10530201;28;19913;-75
2021/11/29 22:59:50;;;;;;;;;;;;;;;3.34;100.00;93157.03;10512410;28;20382;-77
2021/11/29 23:04:50;;;;;;;;;;;;;;;3.11;100.00;93153.81;10514317;28;19922;-74
2021/11/29 23:09:53;;;;;;;;;;;;;;;3.08;100.00;93146.41;10514879;28;19912;-76
2021/11/29 23:14:53;;;;;;;;;;;;;;;3.20;100.00;93141.63;10517738;28;20386;-78
2021/11/29 23:19:54;;;;;;;;;;;;;;;3.28;100.00;93139.50;10538213;28;19912;-77
2021/11/29 23:24:54;;;;;;;;;;;;;;;3.25;100.00;93141.63;10523797;28;19963;-74
2021/11/29 23:29:55;;;;;;;;;;;;;;;3.14;100.00;93136.59;10517006;28;19977;-78
2021/11/29 23:34:55;;;;;;;;;;;;;;;3.24;100.00;93139.25;10515242;28;20385;-76
2021/11/29 23:39:55;;;;;;;;;;;;;;;3.40;100.00;93130.22;10512488;28;19920;-76
2021/11/29 23:44:56;;;;;;;;;;;;;;;3.52;100.00;93113.19;10514298;28;19981;-77
2021/11/29 23:50:00;;;;;;;;;;;;;;;3.59;100.00;93109.16;10521424;28;20025;-75
2021/11/29 23:55:00;;;;;;;;;;;;;;;3.85;100.00;93122.41;10544640;28;19943;-70
